createdAt,value
2022-09-23T00:03:06.074Z,95279.75
2022-09-23T00:06:17.034Z,95282.66
2022-09-23T00:09:25.413Z,95278.31
2022-09-23T00:12:33.621Z,95268.78
2022-09-23T00:15:41.751Z,95273.78
2022-09-23T00:18:51.549Z,95264.78
2022-09-23T00:21:59.719Z,95277.25
2022-09-23T00:25:11.393Z,95277.47
2022-09-23T00:28:19.600Z,95270.88
2022-09-23T00:31:28.789Z,95276.19
2022-09-23T00:34:38.510Z,95268.69
2022-09-23T00:37:46.666Z,95270.25
2022-09-23T00:40:55.142Z,95263.72
2022-09-23T00:44:42.770Z,95259.06
2022-09-23T00:47:58.270Z,95249.09
2022-09-23T00:51:12.303Z,95257.78
2022-09-23T00:54:22.253Z,95256.50
2022-09-23T00:57:31.241Z,95253.13
2022-09-23T01:00:40.349Z,95261.00
2022-09-23T01:03:50.162Z,95243.00
2022-09-23T01:06:59.744Z,95243.41
2022-09-23T01:10:11.862Z,95244.22
2022-09-23T01:13:32.084Z,95228.97
2022-09-23T01:16:49.127Z,95230.53
2022-09-23T01:20:29.429Z,95230.38
2022-09-23T01:24:27.508Z,95226.28
2022-09-23T01:28:00.652Z,95229.94
2022-09-23T01:31:20.414Z,95230.91
2022-09-23T01:34:37.685Z,95231.63
2022-09-23T01:37:52.497Z,95232.81
2022-09-23T01:41:12.512Z,95227.16
2022-09-23T01:44:30.010Z,95230.75
2022-09-23T01:47:48.378Z,95230.06
2022-09-23T01:51:03.434Z,95215.22
2022-09-23T01:54:18.687Z,95213.38
2022-09-23T01:57:36.288Z,95216.84
2022-09-23T02:00:55.159Z,95211.28
2022-09-23T02:04:13.113Z,95216.94
2022-09-23T02:07:29.290Z,95211.28
2022-09-23T02:10:46.003Z,95210.38
2022-09-23T02:13:59.895Z,95214.53
2022-09-23T02:17:14.803Z,95212.16
2022-09-23T02:20:30.617Z,95209.94
2022-09-23T02:23:45.129Z,95215.59
2022-09-23T02:26:59.696Z,95215.88
2022-09-23T02:30:14.015Z,95213.97
2022-09-23T02:33:32.777Z,95215.72
2022-09-23T02:36:54.217Z,95215.59
2022-09-23T02:40:16.964Z,95211.75
2022-09-23T02:43:36.446Z,95205.56
2022-09-23T02:46:45.917Z,95210.81
2022-09-23T02:49:56.332Z,95206.56
2022-09-23T02:53:07.447Z,95206.09
2022-09-23T02:56:19.624Z,95200.88
2022-09-23T02:59:28.229Z,95201.06
2022-09-23T03:03:10.534Z,95193.44
2022-09-23T03:06:31.520Z,95197.88
2022-09-23T03:09:54.012Z,95196.78
2022-09-23T03:13:17.027Z,95193.47
2022-09-23T03:16:39.338Z,95186.03
2022-09-23T03:19:56.307Z,95193.19
2022-09-23T03:23:11.671Z,95192.41
2022-09-23T03:26:28.415Z,95191.72
2022-09-23T03:29:37.321Z,95189.19
2022-09-23T03:32:47.814Z,95184.78
2022-09-23T03:36:22.579Z,95182.34
2022-09-23T03:39:41.190Z,95183.81
2022-09-23T03:42:51.240Z,95184.53
2022-09-23T03:46:01.509Z,95183.56
2022-09-23T03:49:17.721Z,95187.69
2022-09-23T03:52:27.451Z,95180.47
2022-09-23T03:55:36.087Z,95180.22
2022-09-23T03:58:46.457Z,95172.84
2022-09-23T04:01:55.696Z,95178.56
2022-09-23T04:05:04.041Z,95178.56
2022-09-23T04:08:12.193Z,95176.16
2022-09-23T04:11:20.295Z,95169.34
2022-09-23T04:14:29.866Z,95167.31
2022-09-23T04:17:37.962Z,95174.19
2022-09-23T04:20:46.337Z,95171.66
2022-09-23T04:23:54.416Z,95172.78
2022-09-23T04:27:02.600Z,95162.09
2022-09-23T04:30:14.114Z,95168.78
2022-09-23T04:33:22.219Z,95160.19
2022-09-23T04:36:30.419Z,95162.63
2022-09-23T04:39:38.624Z,95156.84
2022-09-23T04:42:46.816Z,95166.91
2022-09-23T04:46:04.892Z,95172.03
2022-09-23T04:49:12.991Z,95166.88
2022-09-23T04:52:21.069Z,95166.50
2022-09-23T04:55:29.320Z,95157.78
2022-09-23T04:58:37.717Z,95169.13
2022-09-23T05:01:47.256Z,95171.81
2022-09-23T05:04:55.757Z,95176.47
2022-09-23T05:08:03.905Z,95167.09
2022-09-23T05:11:11.975Z,95178.13
2022-09-23T05:14:20.334Z,95179.19
2022-09-23T05:17:31.215Z,95174.75
2022-09-23T05:20:39.396Z,95179.75
2022-09-23T05:23:50.476Z,95187.88
2022-09-23T05:26:58.578Z,95184.31
2022-09-23T05:30:08.687Z,95174.50
2022-09-23T05:33:18.118Z,95183.06
2022-09-23T05:36:29.820Z,95185.59
2022-09-23T05:39:40.197Z,95179.09
2022-09-23T05:42:48.286Z,95191.72
2022-09-23T05:46:07.805Z,95182.00
2022-09-23T05:49:17.743Z,95180.81
2022-09-23T05:52:25.972Z,95182.56
2022-09-23T05:55:34.109Z,95172.88
2022-09-23T05:58:42.328Z,95177.81
2022-09-23T06:01:54.431Z,95170.63
2022-09-23T06:05:06.818Z,95188.81
2022-09-23T06:08:15.670Z,95182.34
2022-09-23T06:11:24.022Z,95184.00
2022-09-23T06:14:32.160Z,95181.63
2022-09-23T06:17:40.231Z,95184.28
2022-09-23T06:20:49.652Z,95177.00
2022-09-23T06:24:00.222Z,95167.66
2022-09-23T06:27:08.299Z,95168.19
2022-09-23T06:30:17.065Z,95176.19
2022-09-23T06:33:34.350Z,95171.38
2022-09-23T06:36:46.817Z,95172.94
2022-09-23T06:39:55.075Z,95170.84
2022-09-23T06:43:03.424Z,95171.94
2022-09-23T06:46:17.237Z,95171.16
2022-09-23T06:49:25.437Z,95174.13
2022-09-23T06:52:35.109Z,95170.22
2022-09-23T06:55:44.154Z,95171.75
2022-09-23T06:58:53.466Z,95172.81
2022-09-23T07:02:01.772Z,95177.03
2022-09-23T07:05:10.461Z,95166.06
2022-09-23T07:08:19.915Z,95167.41
2022-09-23T07:11:28.024Z,95176.88
2022-09-23T07:14:36.161Z,95175.66
2022-09-23T07:17:44.289Z,95186.50
2022-09-23T07:20:52.711Z,95177.88
2022-09-23T07:24:02.737Z,95174.56
2022-09-23T07:27:10.971Z,95177.34
2022-09-23T07:30:25.026Z,95179.72
2022-09-23T07:33:34.533Z,95170.03
2022-09-23T07:36:42.756Z,95176.25
2022-09-23T07:39:52.314Z,95178.16
2022-09-23T07:43:00.587Z,95175.88
2022-09-23T07:46:14.217Z,95183.84
2022-09-23T07:49:22.516Z,95178.50
2022-09-23T07:52:31.061Z,95183.13
2022-09-23T07:55:40.755Z,95175.41
2022-09-23T07:59:00.135Z,95178.56
2022-09-23T08:02:15.752Z,95178.25
2022-09-23T08:05:24.057Z,95178.72
2022-09-23T08:08:32.609Z,95183.22
2022-09-23T08:11:42.921Z,95182.31
2022-09-23T08:14:51.028Z,95186.66
2022-09-23T08:18:01.226Z,95177.94
2022-09-23T08:21:09.683Z,95187.66
2022-09-23T08:24:21.234Z,95178.50
2022-09-23T08:27:32.251Z,95194.09
2022-09-23T08:30:40.730Z,95193.09
2022-09-23T08:33:48.914Z,95185.88
2022-09-23T08:36:57.935Z,95188.78
2022-09-23T08:40:08.049Z,95184.66
2022-09-23T08:43:27.360Z,95182.00
2022-09-23T08:46:46.448Z,95166.13
2022-09-23T08:50:05.348Z,95172.72
2022-09-23T08:53:24.894Z,95170.78
2022-09-23T08:56:35.389Z,95174.22
2022-09-23T08:59:46.264Z,95178.56
2022-09-23T09:02:57.081Z,95173.13
2022-09-23T09:06:05.728Z,95172.56
2022-09-23T09:09:25.035Z,95168.13
2022-09-23T09:12:43.415Z,95168.44
2022-09-23T09:16:15.352Z,95168.56
2022-09-23T09:19:56.284Z,95164.00
2022-09-23T09:23:21.810Z,95158.25
2022-09-23T09:26:34.839Z,95158.22
2022-09-23T09:29:50.002Z,95148.41
2022-09-23T09:33:04.582Z,95144.53
2022-09-23T09:36:24.716Z,95139.38
2022-09-23T09:39:34.306Z,95144.59
2022-09-23T09:42:47.967Z,95133.88
2022-09-23T09:46:17.099Z,95133.63
2022-09-23T09:49:40.510Z,95126.56
2022-09-23T09:52:49.301Z,95124.78
2022-09-23T09:56:05.335Z,95120.59
2022-09-23T09:59:23.510Z,95119.72
2022-09-23T10:02:36.858Z,95115.00
2022-09-23T10:05:54.390Z,95107.34
2022-09-23T10:09:19.202Z,95115.56
2022-09-23T10:12:27.961Z,95106.34
2022-09-23T10:15:45.712Z,95106.31
2022-09-23T10:18:57.081Z,95106.63
2022-09-23T10:22:26.265Z,95101.16
2022-09-23T10:25:37.664Z,95096.09
2022-09-23T10:28:52.305Z,95104.28
2022-09-23T10:32:28.111Z,95098.19
2022-09-23T10:35:36.502Z,95099.88
2022-09-23T10:38:50.294Z,95095.00
2022-09-23T10:42:27.739Z,95098.94
2022-09-23T10:45:59.154Z,95094.06
2022-09-23T10:49:59.344Z,95093.09
2022-09-23T10:53:20.694Z,95085.44
2022-09-23T10:56:40.725Z,95080.59
2022-09-23T11:00:03.804Z,95083.16
2022-09-23T11:04:26.871Z,95072.31
2022-09-23T11:07:41.375Z,95071.00
2022-09-23T11:11:11.603Z,95073.50
2022-09-23T11:14:42.545Z,95070.81
2022-09-23T11:18:29.167Z,95073.41
2022-09-23T11:22:02.172Z,95065.22
2022-09-23T11:25:30.289Z,95059.78
2022-09-23T11:29:07.392Z,95054.44
2022-09-23T11:32:48.713Z,95046.56
2022-09-23T11:36:05.826Z,95053.22
2022-09-23T11:39:21.830Z,95040.25
2022-09-23T11:42:36.482Z,95036.41
2022-09-23T11:45:58.581Z,95040.50
2022-09-23T11:49:18.235Z,95031.09
2022-09-23T11:52:35.961Z,95027.38
2022-09-23T11:55:57.234Z,95033.69
2022-09-23T11:59:35.302Z,95027.47
2022-09-23T12:03:05.934Z,95026.66
2022-09-23T12:06:23.099Z,95013.78
2022-09-23T12:09:57.678Z,95016.31
2022-09-23T12:13:18.006Z,95017.50
2022-09-23T12:16:59.113Z,95015.59
2022-09-23T12:20:43.233Z,95008.38
2022-09-23T12:24:19.184Z,95004.31
2022-09-23T12:27:41.916Z,95012.16
2022-09-23T12:30:54.179Z,95004.25
2022-09-23T12:34:20.827Z,95006.47
2022-09-23T12:37:36.021Z,95008.13
2022-09-23T12:40:45.595Z,95001.91
2022-09-23T12:43:57.896Z,94995.06
2022-09-23T12:47:38.946Z,94995.28
2022-09-23T12:50:50.961Z,94991.75
2022-09-23T12:54:24.831Z,94986.13
2022-09-23T12:57:44.405Z,94989.16
2022-09-23T13:01:09.141Z,94989.03
2022-09-23T13:05:01.404Z,94982.88
2022-09-23T13:08:16.208Z,94980.25
2022-09-23T13:11:29.989Z,94974.69
2022-09-23T13:14:45.469Z,94966.84
2022-09-23T13:17:54.133Z,94960.16
2022-09-23T13:21:08.446Z,94959.69
2022-09-23T13:24:36.415Z,94958.00
2022-09-23T13:27:50.950Z,94946.31
2022-09-23T13:31:06.919Z,94949.31
2022-09-23T13:34:21.885Z,94945.75
2022-09-23T13:37:42.551Z,94931.31
2022-09-23T13:40:51.535Z,94936.78
2022-09-23T13:44:01.178Z,94933.50
2022-09-23T13:47:16.698Z,94924.72
2022-09-23T13:50:28.053Z,94926.00
2022-09-23T13:53:39.820Z,94930.50
2022-09-23T13:56:50.808Z,94923.75
2022-09-23T14:00:03.582Z,94922.38
2022-09-23T14:03:36.643Z,94922.38
2022-09-23T14:06:46.848Z,94919.81
2022-09-23T14:09:57.719Z,94920.97
2022-09-23T14:13:06.239Z,94914.34
2022-09-23T14:16:17.134Z,94904.66
2022-09-23T14:19:27.901Z,94903.47
2022-09-23T14:22:36.308Z,94904.06
2022-09-23T14:25:46.542Z,94900.25
2022-09-23T14:28:55.959Z,94899.31
2022-09-23T14:32:13.137Z,94893.44
2022-09-23T14:35:28.324Z,94885.91
2022-09-23T14:38:51.402Z,94881.50
2022-09-23T14:42:00.080Z,94881.91
2022-09-23T14:45:16.297Z,94884.06
2022-09-23T14:48:28.573Z,94877.88
2022-09-23T14:51:49.009Z,94883.41
2022-09-23T14:54:58.401Z,94872.06
2022-09-23T14:58:17.945Z,94874.06
2022-09-23T15:01:38.562Z,94878.84
2022-09-23T15:04:47.245Z,94877.19
2022-09-23T15:08:02.374Z,94869.84
2022-09-23T15:11:10.879Z,94867.28
2022-09-23T15:14:37.255Z,94870.59
2022-09-23T15:17:48.240Z,94864.09
2022-09-23T15:21:02.479Z,94865.97
2022-09-23T15:24:42.261Z,94864.09
2022-09-23T15:28:04.252Z,94855.75
2022-09-23T15:31:13.257Z,94858.06
2022-09-23T15:34:21.742Z,94853.19
2022-09-23T15:37:35.507Z,94857.94
2022-09-23T15:40:46.138Z,94850.28
2022-09-23T15:43:56.631Z,94855.34
2022-09-23T15:47:05.601Z,94850.16
2022-09-23T15:50:14.690Z,94850.41
2022-09-23T15:53:27.716Z,94842.16
2022-09-23T15:56:38.054Z,94851.22
2022-09-23T15:59:46.389Z,94847.81
2022-09-23T16:02:55.244Z,94854.50
2022-09-23T16:06:04.113Z,94851.97
2022-09-23T16:09:13.764Z,94853.50
2022-09-23T16:12:23.619Z,94855.78
2022-09-23T16:15:33.652Z,94852.81
2022-09-23T16:18:43.872Z,94839.03
2022-09-23T16:21:52.412Z,94841.72
2022-09-23T16:25:00.590Z,94845.41
2022-09-23T16:28:12.056Z,94849.94
2022-09-23T16:31:21.481Z,94856.72
2022-09-23T16:34:29.943Z,94855.31
2022-09-23T16:37:38.500Z,94859.22
2022-09-23T16:40:47.464Z,94856.28
2022-09-23T16:43:57.680Z,94860.00
2022-09-23T16:47:06.016Z,94860.69
2022-09-23T16:50:17.166Z,94859.75
2022-09-23T16:53:26.401Z,94867.19
2022-09-23T16:56:35.316Z,94867.47
2022-09-23T17:00:02.648Z,94857.16
2022-09-23T17:03:31.012Z,94859.66
2022-09-23T17:06:44.749Z,94859.94
2022-09-23T17:09:53.178Z,94863.50
2022-09-23T17:13:01.649Z,94861.25
2022-09-23T17:16:22.744Z,94860.56
2022-09-23T17:19:30.992Z,94865.44
2022-09-23T17:22:39.351Z,94863.75
2022-09-23T17:25:49.439Z,94867.94
2022-09-23T17:28:59.389Z,94861.88
2022-09-23T17:32:09.487Z,94863.66
2022-09-23T17:35:17.948Z,94867.41
2022-09-23T17:38:29.459Z,94875.47
2022-09-23T17:41:39.071Z,94877.78
2022-09-23T17:44:48.246Z,94879.09
2022-09-23T17:47:57.701Z,94882.34
2022-09-23T17:51:11.521Z,94882.72
2022-09-23T17:54:20.329Z,94892.19
2022-09-23T17:57:28.739Z,94892.97
2022-09-23T18:00:36.969Z,94890.41
2022-09-23T18:03:47.470Z,94886.50
2022-09-23T18:06:55.651Z,94890.19
2022-09-23T18:10:04.376Z,94885.84
2022-09-23T18:13:13.291Z,94884.25
2022-09-23T18:16:26.343Z,94883.84
2022-09-23T18:19:36.387Z,94886.31
2022-09-23T18:22:44.986Z,94886.34
2022-09-23T18:25:53.780Z,94890.88
2022-09-23T18:29:03.520Z,94890.84
2022-09-23T18:32:14.168Z,94896.38
2022-09-23T18:35:24.264Z,94897.44
2022-09-23T18:38:32.647Z,94893.72
2022-09-23T18:41:41.096Z,94899.66
2022-09-23T18:44:54.149Z,94900.66
2022-09-23T18:48:20.182Z,94899.44
2022-09-23T18:51:32.350Z,94896.97
2022-09-23T18:54:40.412Z,94897.56
2022-09-23T18:57:49.026Z,94899.41
2022-09-23T19:00:57.410Z,94899.19
2022-09-23T19:04:06.802Z,94903.22
2022-09-23T19:07:17.027Z,94898.09
2022-09-23T19:10:25.489Z,94909.63
2022-09-23T19:13:35.859Z,94900.59
2022-09-23T19:16:44.066Z,94897.97
2022-09-23T19:19:52.438Z,94897.69
2022-09-23T19:23:01.995Z,94904.38
2022-09-23T19:26:13.358Z,94897.38
2022-09-23T19:29:22.189Z,94891.06
2022-09-23T19:32:33.351Z,94888.00
2022-09-23T19:35:48.529Z,94886.63
2022-09-23T19:39:04.340Z,94890.50
2022-09-23T19:42:12.673Z,94894.78
2022-09-23T19:45:21.228Z,94890.91
2022-09-23T19:48:29.561Z,94893.72
2022-09-23T19:51:37.885Z,94884.72
2022-09-23T19:54:48.605Z,94882.06
2022-09-23T19:57:56.751Z,94880.97
2022-09-23T20:01:08.440Z,94880.19
2022-09-23T20:04:16.905Z,94879.34
2022-09-23T20:07:25.406Z,94874.59
2022-09-23T20:10:35.345Z,94875.97
2022-09-23T20:13:47.138Z,94878.41
2022-09-23T20:16:56.595Z,94875.97
2022-09-23T20:20:06.990Z,94879.41
2022-09-23T20:23:15.156Z,94875.28
2022-09-23T20:26:42.289Z,94876.13
2022-09-23T20:29:51.138Z,94877.72
2022-09-23T20:33:00.923Z,94877.56
2022-09-23T20:36:09.660Z,94874.94
2022-09-23T20:39:18.030Z,94866.34
2022-09-23T20:42:28.425Z,94860.41
2022-09-23T20:45:36.613Z,94866.97
2022-09-23T20:48:47.457Z,94869.16
2022-09-23T20:51:55.861Z,94862.84
2022-09-23T20:55:04.389Z,94859.16
2022-09-23T20:58:13.799Z,94854.25
2022-09-23T21:01:23.185Z,94857.97
2022-09-23T21:04:32.864Z,94861.22
2022-09-23T21:07:41.190Z,94847.75
2022-09-23T21:10:55.612Z,94847.38
2022-09-23T21:14:05.553Z,94835.88
2022-09-23T21:17:14.275Z,94850.19
2022-09-23T21:20:22.477Z,94841.19
2022-09-23T21:23:33.367Z,94844.09
2022-09-23T21:26:41.554Z,94838.53
2022-09-23T21:29:51.449Z,94837.13
2022-09-23T21:33:01.824Z,94838.16
2022-09-23T21:36:11.228Z,94835.31
2022-09-23T21:39:19.756Z,94836.13
2022-09-23T21:42:28.486Z,94839.22
2022-09-23T21:45:38.666Z,94838.41
2022-09-23T21:48:49.870Z,94842.13
2022-09-23T21:52:00.931Z,94838.44
2022-09-23T21:55:09.639Z,94845.78
2022-09-23T21:58:17.803Z,94842.19
2022-09-23T22:01:30.347Z,94839.53
2022-09-23T22:04:38.589Z,94840.94
2022-09-23T22:07:46.817Z,94835.19
2022-09-23T22:10:56.066Z,94833.56
2022-09-23T22:14:08.402Z,94840.66
2022-09-23T22:17:19.178Z,94833.44
2022-09-23T22:20:28.118Z,94825.69
2022-09-23T22:23:36.495Z,94818.72
2022-09-23T22:26:46.083Z,94815.69
2022-09-23T22:30:11.674Z,94816.13
2022-09-23T22:33:22.009Z,94818.34
2022-09-23T22:36:30.347Z,94815.31
2022-09-23T22:39:38.905Z,94812.47
2022-09-23T22:42:48.469Z,94817.63
2022-09-23T22:45:57.059Z,94817.00
2022-09-23T22:49:07.427Z,94809.41
2022-09-23T22:52:21.172Z,94809.84
2022-09-23T22:55:31.106Z,94802.09
2022-09-23T22:58:39.579Z,94810.06
2022-09-23T23:01:48.307Z,94804.81
2022-09-23T23:05:00.391Z,94809.91
2022-09-23T23:08:08.537Z,94789.88
2022-09-23T23:11:16.670Z,94795.38
2022-09-23T23:14:28.203Z,94787.00
2022-09-23T23:17:36.468Z,94777.41
2022-09-23T23:20:46.111Z,94781.91
2022-09-23T23:23:55.238Z,94780.47
2022-09-23T23:27:03.371Z,94785.78
2022-09-23T23:30:13.162Z,94781.50
2022-09-23T23:33:21.420Z,94795.00
2022-09-23T23:36:31.502Z,94775.97
2022-09-23T23:39:39.671Z,94784.59
2022-09-23T23:42:48.135Z,94784.97
2022-09-23T23:45:56.335Z,94781.28
2022-09-23T23:49:06.818Z,94774.31
2022-09-23T23:52:16.252Z,94778.22
2022-09-23T23:55:25.775Z,94771.84
2022-09-23T23:58:34.656Z,94774.69
